sensor_id;sensor_type;location;lat;lon;timestamp;P1;durP1;ratioP1;P2;durP2;ratioP2
23596;SDS011;40226;50.874;4.394;2023-12-28T00:02:17;9.35;;;4.60;;
23596;SDS011;40226;50.874;4.394;2023-12-28T00:04:43;7.68;;;3.80;;
23596;SDS011;40226;50.874;4.394;2023-12-28T00:07:08;6.13;;;3.80;;
23596;SDS011;40226;50.874;4.394;2023-12-28T00:09:34;7.65;;;4.38;;
23596;SDS011;40226;50.874;4.394;2023-12-28T00:12:00;8.77;;;4.32;;
23596;SDS011;40226;50.874;4.394;2023-12-28T00:14:25;7.07;;;3.97;;
23596;SDS011;40226;50.874;4.394;2023-12-28T00:16:51;6.53;;;3.97;;
23596;SDS011;40226;50.874;4.394;2023-12-28T00:19:16;6.10;;;3.63;;
23596;SDS011;40226;50.874;4.394;2023-12-28T00:21:42;7.00;;;4.20;;
23596;SDS011;40226;50.874;4.394;2023-12-28T00:24:09;7.28;;;4.60;;
23596;SDS011;40226;50.874;4.394;2023-12-28T00:26:34;8.55;;;4.30;;
23596;SDS011;40226;50.874;4.394;2023-12-28T00:29:00;8.68;;;4.20;;
23596;SDS011;40226;50.874;4.394;2023-12-28T00:31:25;6.47;;;4.13;;
23596;SDS011;40226;50.874;4.394;2023-12-28T00:33:51;5.45;;;4.03;;
23596;SDS011;40226;50.874;4.394;2023-12-28T00:36:17;11.63;;;4.72;;
23596;SDS011;40226;50.874;4.394;2023-12-28T00:38:42;6.65;;;3.78;;
23596;SDS011;40226;50.874;4.394;2023-12-28T00:41:08;10.25;;;4.45;;
23596;SDS011;40226;50.874;4.394;2023-12-28T00:43:34;6.60;;;4.00;;
23596;SDS011;40226;50.874;4.394;2023-12-28T00:45:59;6.70;;;3.97;;
23596;SDS011;40226;50.874;4.394;2023-12-28T00:48:25;6.85;;;4.35;;
23596;SDS011;40226;50.874;4.394;2023-12-28T00:50:50;8.27;;;4.43;;
23596;SDS011;40226;50.874;4.394;2023-12-28T00:53:16;7.50;;;4.18;;
23596;SDS011;40226;50.874;4.394;2023-12-28T00:55:42;7.30;;;4.18;;
23596;SDS011;40226;50.874;4.394;2023-12-28T00:58:07;6.95;;;4.35;;
23596;SDS011;40226;50.874;4.394;2023-12-28T01:00:33;9.55;;;4.40;;
23596;SDS011;40226;50.874;4.394;2023-12-28T01:02:58;6.68;;;3.95;;
23596;SDS011;40226;50.874;4.394;2023-12-28T01:05:24;8.40;;;4.28;;
23596;SDS011;40226;50.874;4.394;2023-12-28T01:07:53;5.10;;;3.97;;
23596;SDS011;40226;50.874;4.394;2023-12-28T01:10:19;8.55;;;3.90;;
23596;SDS011;40226;50.874;4.394;2023-12-28T01:12:44;7.95;;;4.05;;
23596;SDS011;40226;50.874;4.394;2023-12-28T01:15:10;7.80;;;4.22;;
23596;SDS011;40226;50.874;4.394;2023-12-28T01:17:36;8.55;;;4.35;;
23596;SDS011;40226;50.874;4.394;2023-12-28T01:20:03;7.38;;;3.83;;
23596;SDS011;40226;50.874;4.394;2023-12-28T01:22:29;8.13;;;4.38;;
23596;SDS011;40226;50.874;4.394;2023-12-28T01:24:54;8.75;;;4.13;;
23596;SDS011;40226;50.874;4.394;2023-12-28T01:27:20;9.05;;;4.68;;
23596;SDS011;40226;50.874;4.394;2023-12-28T01:29:45;6.60;;;4.10;;
23596;SDS011;40226;50.874;4.394;2023-12-28T01:32:11;12.30;;;4.60;;
23596;SDS011;40226;50.874;4.394;2023-12-28T01:34:36;5.93;;;4.07;;
23596;SDS011;40226;50.874;4.394;2023-12-28T01:37:02;9.18;;;4.25;;
23596;SDS011;40226;50.874;4.394;2023-12-28T01:39:28;7.25;;;3.40;;
23596;SDS011;40226;50.874;4.394;2023-12-28T01:41:53;9.15;;;4.30;;
23596;SDS011;40226;50.874;4.394;2023-12-28T01:44:20;5.90;;;3.92;;
23596;SDS011;40226;50.874;4.394;2023-12-28T01:46:45;8.60;;;3.92;;
23596;SDS011;40226;50.874;4.394;2023-12-28T01:49:11;10.07;;;4.43;;
23596;SDS011;40226;50.874;4.394;2023-12-28T01:51:38;8.57;;;3.88;;
23596;SDS011;40226;50.874;4.394;2023-12-28T01:54:04;6.50;;;3.55;;
23596;SDS011;40226;50.874;4.394;2023-12-28T01:56:30;8.88;;;3.78;;
23596;SDS011;40226;50.874;4.394;2023-12-28T01:58:55;9.73;;;3.67;;
23596;SDS011;40226;50.874;4.394;2023-12-28T02:01:21;8.20;;;3.70;;
23596;SDS011;40226;50.874;4.394;2023-12-28T02:03:47;5.45;;;2.97;;
23596;SDS011;40226;50.874;4.394;2023-12-28T02:06:13;6.75;;;3.95;;
23596;SDS011;40226;50.874;4.394;2023-12-28T02:08:42;6.50;;;3.60;;
23596;SDS011;40226;50.874;4.394;2023-12-28T02:11:08;6.57;;;3.33;;
23596;SDS011;40226;50.874;4.394;2023-12-28T02:13:33;8.02;;;3.97;;
23596;SDS011;40226;50.874;4.394;2023-12-28T02:18:43;5.03;;;3.42;;
23596;SDS011;40226;50.874;4.394;2023-12-28T02:21:12;7.45;;;3.70;;
23596;SDS011;40226;50.874;4.394;2023-12-28T02:23:39;6.60;;;3.28;;
23596;SDS011;40226;50.874;4.394;2023-12-28T02:26:04;9.57;;;3.80;;
23596;SDS011;40226;50.874;4.394;2023-12-28T02:28:30;5.70;;;3.10;;
23596;SDS011;40226;50.874;4.394;2023-12-28T02:30:56;8.00;;;3.13;;
23596;SDS011;40226;50.874;4.394;2023-12-28T02:36:38;5.30;;;3.15;;
23596;SDS011;40226;50.874;4.394;2023-12-28T02:39:09;12.25;;;3.53;;
23596;SDS011;40226;50.874;4.394;2023-12-28T02:41:39;8.35;;;3.25;;
23596;SDS011;40226;50.874;4.394;2023-12-28T02:44:05;9.95;;;3.15;;
23596;SDS011;40226;50.874;4.394;2023-12-28T02:46:31;10.25;;;3.78;;
23596;SDS011;40226;50.874;4.394;2023-12-28T02:48:56;7.10;;;3.30;;
23596;SDS011;40226;50.874;4.394;2023-12-28T02:51:24;8.00;;;3.63;;
23596;SDS011;40226;50.874;4.394;2023-12-28T02:53:50;9.93;;;3.15;;
23596;SDS011;40226;50.874;4.394;2023-12-28T02:56:15;10.70;;;3.55;;
23596;SDS011;40226;50.874;4.394;2023-12-28T02:58:41;6.63;;;2.75;;
23596;SDS011;40226;50.874;4.394;2023-12-28T03:01:07;8.57;;;3.20;;
23596;SDS011;40226;50.874;4.394;2023-12-28T03:03:32;6.18;;;3.28;;
23596;SDS011;40226;50.874;4.394;2023-12-28T03:05:58;7.25;;;3.53;;
23596;SDS011;40226;50.874;4.394;2023-12-28T03:08:23;12.30;;;3.33;;
23596;SDS011;40226;50.874;4.394;2023-12-28T03:10:49;7.10;;;3.15;;
23596;SDS011;40226;50.874;4.394;2023-12-28T03:13:15;11.30;;;3.60;;
23596;SDS011;40226;50.874;4.394;2023-12-28T03:15:40;10.73;;;3.42;;
23596;SDS011;40226;50.874;4.394;2023-12-28T03:18:06;12.35;;;3.58;;
23596;SDS011;40226;50.874;4.394;2023-12-28T03:20:32;8.95;;;3.30;;
23596;SDS011;40226;50.874;4.394;2023-12-28T03:22:58;11.25;;;3.08;;
23596;SDS011;40226;50.874;4.394;2023-12-28T03:25:23;11.40;;;3.20;;
23596;SDS011;40226;50.874;4.394;2023-12-28T03:27:49;12.98;;;3.47;;
23596;SDS011;40226;50.874;4.394;2023-12-28T03:30:14;7.28;;;2.38;;
23596;SDS011;40226;50.874;4.394;2023-12-28T03:32:40;6.32;;;2.75;;
23596;SDS011;40226;50.874;4.394;2023-12-28T03:35:06;10.38;;;3.00;;
23596;SDS011;40226;50.874;4.394;2023-12-28T03:37:32;11.40;;;3.88;;
23596;SDS011;40226;50.874;4.394;2023-12-28T03:39:58;15.48;;;4.03;;
23596;SDS011;40226;50.874;4.394;2023-12-28T03:42:23;14.90;;;3.13;;
23596;SDS011;40226;50.874;4.394;2023-12-28T03:44:49;6.68;;;2.60;;
23596;SDS011;40226;50.874;4.394;2023-12-28T03:47:15;10.07;;;3.15;;
23596;SDS011;40226;50.874;4.394;2023-12-28T03:49:40;9.98;;;3.15;;
23596;SDS011;40226;50.874;4.394;2023-12-28T03:52:06;9.75;;;2.88;;
23596;SDS011;40226;50.874;4.394;2023-12-28T03:54:31;10.00;;;2.72;;
23596;SDS011;40226;50.874;4.394;2023-12-28T03:56:57;10.80;;;2.53;;
23596;SDS011;40226;50.874;4.394;2023-12-28T03:59:22;9.32;;;2.85;;
23596;SDS011;40226;50.874;4.394;2023-12-28T04:01:48;11.02;;;2.45;;
23596;SDS011;40226;50.874;4.394;2023-12-28T04:04:14;7.72;;;2.67;;
23596;SDS011;40226;50.874;4.394;2023-12-28T04:06:39;13.75;;;2.63;;
23596;SDS011;40226;50.874;4.394;2023-12-28T04:09:07;13.35;;;2.38;;
23596;SDS011;40226;50.874;4.394;2023-12-28T04:11:32;15.32;;;3.10;;
23596;SDS011;40226;50.874;4.394;2023-12-28T04:13:58;8.57;;;2.83;;
23596;SDS011;40226;50.874;4.394;2023-12-28T04:16:24;11.00;;;2.53;;
23596;SDS011;40226;50.874;4.394;2023-12-28T04:18:49;7.30;;;2.75;;
23596;SDS011;40226;50.874;4.394;2023-12-28T04:21:15;13.52;;;2.55;;
23596;SDS011;40226;50.874;4.394;2023-12-28T04:23:41;12.35;;;2.63;;
23596;SDS011;40226;50.874;4.394;2023-12-28T04:26:07;11.52;;;2.88;;
23596;SDS011;40226;50.874;4.394;2023-12-28T04:28:32;18.20;;;3.42;;
23596;SDS011;40226;50.874;4.394;2023-12-28T04:31:02;9.23;;;2.85;;
23596;SDS011;40226;50.874;4.394;2023-12-28T04:33:31;10.98;;;2.83;;
23596;SDS011;40226;50.874;4.394;2023-12-28T04:35:57;10.35;;;2.88;;
23596;SDS011;40226;50.874;4.394;2023-12-28T04:38:32;11.88;;;2.20;;
23596;SDS011;40226;50.874;4.394;2023-12-28T04:40:58;8.85;;;2.38;;
23596;SDS011;40226;50.874;4.394;2023-12-28T04:43:24;8.25;;;2.33;;
23596;SDS011;40226;50.874;4.394;2023-12-28T04:45:50;9.40;;;2.60;;
23596;SDS011;40226;50.874;4.394;2023-12-28T04:48:16;7.88;;;2.38;;
23596;SDS011;40226;50.874;4.394;2023-12-28T04:50:46;8.88;;;2.97;;
23596;SDS011;40226;50.874;4.394;2023-12-28T04:53:15;12.63;;;3.03;;
23596;SDS011;40226;50.874;4.394;2023-12-28T04:55:40;9.48;;;2.35;;
23596;SDS011;40226;50.874;4.394;2023-12-28T04:58:06;12.88;;;2.63;;
23596;SDS011;40226;50.874;4.394;2023-12-28T05:00:32;7.38;;;2.03;;
23596;SDS011;40226;50.874;4.394;2023-12-28T05:02:57;13.40;;;2.80;;
23596;SDS011;40226;50.874;4.394;2023-12-28T05:05:23;12.82;;;2.20;;
23596;SDS011;40226;50.874;4.394;2023-12-28T05:07:49;12.98;;;2.60;;
23596;SDS011;40226;50.874;4.394;2023-12-28T05:10:14;11.30;;;2.70;;
23596;SDS011;40226;50.874;4.394;2023-12-28T05:12:40;15.48;;;3.60;;
23596;SDS011;40226;50.874;4.394;2023-12-28T05:15:05;11.23;;;2.63;;
23596;SDS011;40226;50.874;4.394;2023-12-28T05:17:31;10.77;;;2.10;;
23596;SDS011;40226;50.874;4.394;2023-12-28T05:19:57;16.08;;;2.83;;
23596;SDS011;40226;50.874;4.394;2023-12-28T05:22:22;12.20;;;2.92;;
23596;SDS011;40226;50.874;4.394;2023-12-28T05:24:48;7.78;;;2.30;;
23596;SDS011;40226;50.874;4.394;2023-12-28T05:27:14;9.27;;;2.75;;
23596;SDS011;40226;50.874;4.394;2023-12-28T05:29:39;6.72;;;2.28;;
23596;SDS011;40226;50.874;4.394;2023-12-28T05:32:05;14.80;;;2.58;;
23596;SDS011;40226;50.874;4.394;2023-12-28T05:34:31;11.35;;;3.00;;
23596;SDS011;40226;50.874;4.394;2023-12-28T05:36:56;17.75;;;2.60;;
23596;SDS011;40226;50.874;4.394;2023-12-28T05:39:22;12.10;;;2.80;;
23596;SDS011;40226;50.874;4.394;2023-12-28T05:41:47;14.23;;;2.35;;
23596;SDS011;40226;50.874;4.394;2023-12-28T05:44:15;11.85;;;2.35;;
23596;SDS011;40226;50.874;4.394;2023-12-28T05:46:41;12.55;;;2.40;;
23596;SDS011;40226;50.874;4.394;2023-12-28T05:49:07;13.93;;;2.70;;
23596;SDS011;40226;50.874;4.394;2023-12-28T05:51:38;11.70;;;2.42;;
23596;SDS011;40226;50.874;4.394;2023-12-28T05:54:05;10.50;;;2.63;;
23596;SDS011;40226;50.874;4.394;2023-12-28T05:56:31;17.35;;;3.47;;
23596;SDS011;40226;50.874;4.394;2023-12-28T05:58:56;13.20;;;2.55;;
23596;SDS011;40226;50.874;4.394;2023-12-28T06:01:22;14.32;;;2.55;;
23596;SDS011;40226;50.874;4.394;2023-12-28T06:03:47;9.88;;;2.60;;
23596;SDS011;40226;50.874;4.394;2023-12-28T06:06:15;9.70;;;2.30;;
23596;SDS011;40226;50.874;4.394;2023-12-28T06:08:41;17.80;;;3.08;;
23596;SDS011;40226;50.874;4.394;2023-12-28T06:11:07;18.10;;;3.00;;
23596;SDS011;40226;50.874;4.394;2023-12-28T06:13:32;15.25;;;3.13;;
23596;SDS011;40226;50.874;4.394;2023-12-28T06:15:58;15.98;;;2.53;;
23596;SDS011;40226;50.874;4.394;2023-12-28T06:18:23;14.60;;;2.60;;
23596;SDS011;40226;50.874;4.394;2023-12-28T06:20:49;13.95;;;2.45;;
23596;SDS011;40226;50.874;4.394;2023-12-28T06:23:14;27.55;;;3.67;;
23596;SDS011;40226;50.874;4.394;2023-12-28T06:25:40;22.35;;;3.25;;
23596;SDS011;40226;50.874;4.394;2023-12-28T06:28:06;13.85;;;2.63;;
23596;SDS011;40226;50.874;4.394;2023-12-28T06:30:31;10.23;;;2.42;;
23596;SDS011;40226;50.874;4.394;2023-12-28T06:32:57;15.82;;;2.97;;
23596;SDS011;40226;50.874;4.394;2023-12-28T06:35:23;20.17;;;2.97;;
23596;SDS011;40226;50.874;4.394;2023-12-28T06:37:48;13.77;;;2.75;;
23596;SDS011;40226;50.874;4.394;2023-12-28T06:40:14;15.10;;;2.88;;
23596;SDS011;40226;50.874;4.394;2023-12-28T06:42:39;15.90;;;2.58;;
23596;SDS011;40226;50.874;4.394;2023-12-28T06:45:08;18.77;;;3.10;;
23596;SDS011;40226;50.874;4.394;2023-12-28T06:47:34;20.35;;;2.85;;
23596;SDS011;40226;50.874;4.394;2023-12-28T06:50:00;16.05;;;3.38;;
23596;SDS011;40226;50.874;4.394;2023-12-28T06:52:25;17.63;;;2.53;;
23596;SDS011;40226;50.874;4.394;2023-12-28T06:54:51;10.43;;;2.13;;
23596;SDS011;40226;50.874;4.394;2023-12-28T06:57:18;15.18;;;2.30;;
23596;SDS011;40226;50.874;4.394;2023-12-28T06:59:43;13.75;;;2.55;;
23596;SDS011;40226;50.874;4.394;2023-12-28T07:02:09;12.18;;;2.20;;
23596;SDS011;40226;50.874;4.394;2023-12-28T07:04:35;12.82;;;3.15;;
23596;SDS011;40226;50.874;4.394;2023-12-28T07:07:00;16.23;;;2.80;;
23596;SDS011;40226;50.874;4.394;2023-12-28T07:09:26;11.88;;;2.75;;
23596;SDS011;40226;50.874;4.394;2023-12-28T07:11:51;22.98;;;3.35;;
23596;SDS011;40226;50.874;4.394;2023-12-28T07:14:17;16.60;;;2.88;;
23596;SDS011;40226;50.874;4.394;2023-12-28T07:16:42;13.95;;;2.47;;
23596;SDS011;40226;50.874;4.394;2023-12-28T07:19:08;18.63;;;2.67;;
23596;SDS011;40226;50.874;4.394;2023-12-28T07:21:34;15.63;;;2.42;;
23596;SDS011;40226;50.874;4.394;2023-12-28T07:23:59;12.32;;;2.20;;
23596;SDS011;40226;50.874;4.394;2023-12-28T07:26:25;14.15;;;2.00;;
23596;SDS011;40226;50.874;4.394;2023-12-28T07:28:50;17.95;;;2.53;;
23596;SDS011;40226;50.874;4.394;2023-12-28T07:31:25;16.02;;;2.30;;
23596;SDS011;40226;50.874;4.394;2023-12-28T07:33:52;12.18;;;2.53;;
23596;SDS011;40226;50.874;4.394;2023-12-28T07:36:18;12.18;;;1.92;;
23596;SDS011;40226;50.874;4.394;2023-12-28T07:38:44;16.33;;;2.90;;
23596;SDS011;40226;50.874;4.394;2023-12-28T07:41:10;14.15;;;2.65;;
23596;SDS011;40226;50.874;4.394;2023-12-28T07:43:36;18.73;;;2.78;;
23596;SDS011;40226;50.874;4.394;2023-12-28T07:46:02;16.30;;;3.05;;
23596;SDS011;40226;50.874;4.394;2023-12-28T07:48:28;13.75;;;2.75;;
23596;SDS011;40226;50.874;4.394;2023-12-28T07:50:56;16.15;;;2.78;;
23596;SDS011;40226;50.874;4.394;2023-12-28T07:53:22;15.20;;;1.95;;
23596;SDS011;40226;50.874;4.394;2023-12-28T07:55:48;13.07;;;2.95;;
23596;SDS011;40226;50.874;4.394;2023-12-28T07:58:14;15.32;;;2.53;;
23596;SDS011;40226;50.874;4.394;2023-12-28T08:00:40;16.73;;;3.13;;
23596;SDS011;40226;50.874;4.394;2023-12-28T08:03:06;23.67;;;2.92;;
23596;SDS011;40226;50.874;4.394;2023-12-28T08:05:31;14.30;;;2.63;;
23596;SDS011;40226;50.874;4.394;2023-12-28T08:07:57;12.52;;;2.15;;
23596;SDS011;40226;50.874;4.394;2023-12-28T08:10:22;18.13;;;2.97;;
23596;SDS011;40226;50.874;4.394;2023-12-28T08:12:48;18.75;;;3.05;;
23596;SDS011;40226;50.874;4.394;2023-12-28T08:15:13;16.70;;;2.60;;
23596;SDS011;40226;50.874;4.394;2023-12-28T08:17:40;15.75;;;2.60;;
23596;SDS011;40226;50.874;4.394;2023-12-28T08:20:06;14.90;;;2.58;;
23596;SDS011;40226;50.874;4.394;2023-12-28T08:22:32;22.48;;;2.58;;
23596;SDS011;40226;50.874;4.394;2023-12-28T08:24:58;17.17;;;3.13;;
23596;SDS011;40226;50.874;4.394;2023-12-28T08:27:24;21.88;;;2.63;;
23596;SDS011;40226;50.874;4.394;2023-12-28T08:29:49;28.88;;;3.95;;
23596;SDS011;40226;50.874;4.394;2023-12-28T08:32:15;19.15;;;3.15;;
23596;SDS011;40226;50.874;4.394;2023-12-28T08:34:42;19.75;;;2.90;;
23596;SDS011;40226;50.874;4.394;2023-12-28T08:37:08;17.85;;;2.40;;
23596;SDS011;40226;50.874;4.394;2023-12-28T08:39:33;17.08;;;3.28;;
23596;SDS011;40226;50.874;4.394;2023-12-28T08:41:59;19.23;;;2.72;;
23596;SDS011;40226;50.874;4.394;2023-12-28T08:44:25;19.77;;;2.47;;
23596;SDS011;40226;50.874;4.394;2023-12-28T08:46:50;13.10;;;2.55;;
23596;SDS011;40226;50.874;4.394;2023-12-28T08:49:16;18.17;;;3.22;;
23596;SDS011;40226;50.874;4.394;2023-12-28T08:51:43;19.42;;;2.75;;
23596;SDS011;40226;50.874;4.394;2023-12-28T08:54:09;16.02;;;2.70;;
23596;SDS011;40226;50.874;4.394;2023-12-28T08:56:34;9.65;;;2.15;;
23596;SDS011;40226;50.874;4.394;2023-12-28T08:59:01;17.50;;;3.22;;
23596;SDS011;40226;50.874;4.394;2023-12-28T09:01:26;17.95;;;2.90;;
23596;SDS011;40226;50.874;4.394;2023-12-28T09:03:54;18.13;;;2.72;;
23596;SDS011;40226;50.874;4.394;2023-12-28T09:06:20;18.10;;;2.90;;
23596;SDS011;40226;50.874;4.394;2023-12-28T09:08:50;21.50;;;2.10;;
23596;SDS011;40226;50.874;4.394;2023-12-28T09:11:17;21.40;;;3.00;;
23596;SDS011;40226;50.874;4.394;2023-12-28T09:13:43;17.00;;;2.90;;
23596;SDS011;40226;50.874;4.394;2023-12-28T09:16:10;19.40;;;2.95;;
23596;SDS011;40226;50.874;4.394;2023-12-28T09:18:37;24.30;;;3.40;;
23596;SDS011;40226;50.874;4.394;2023-12-28T09:21:03;16.17;;;2.35;;
23596;SDS011;40226;50.874;4.394;2023-12-28T09:23:30;12.25;;;2.50;;
23596;SDS011;40226;50.874;4.394;2023-12-28T09:25:57;16.95;;;3.28;;
23596;SDS011;40226;50.874;4.394;2023-12-28T09:28:26;21.15;;;3.40;;
23596;SDS011;40226;50.874;4.394;2023-12-28T09:30:51;19.25;;;3.55;;
23596;SDS011;40226;50.874;4.394;2023-12-28T09:33:17;19.38;;;3.25;;
23596;SDS011;40226;50.874;4.394;2023-12-28T09:35:42;15.07;;;3.05;;
23596;SDS011;40226;50.874;4.394;2023-12-28T09:38:08;17.27;;;2.83;;
23596;SDS011;40226;50.874;4.394;2023-12-28T09:40:35;21.05;;;3.28;;
23596;SDS011;40226;50.874;4.394;2023-12-28T09:45:40;22.65;;;3.05;;
23596;SDS011;40226;50.874;4.394;2023-12-28T09:48:06;16.70;;;3.20;;
23596;SDS011;40226;50.874;4.394;2023-12-28T09:50:32;24.38;;;3.55;;
23596;SDS011;40226;50.874;4.394;2023-12-28T09:52:58;17.45;;;2.55;;
23596;SDS011;40226;50.874;4.394;2023-12-28T09:55:24;17.20;;;2.78;;
23596;SDS011;40226;50.874;4.394;2023-12-28T09:57:50;13.98;;;2.50;;
23596;SDS011;40226;50.874;4.394;2023-12-28T10:00:16;13.90;;;2.92;;
23596;SDS011;40226;50.874;4.394;2023-12-28T10:02:43;21.25;;;2.78;;
23596;SDS011;40226;50.874;4.394;2023-12-28T10:05:13;22.65;;;3.30;;
23596;SDS011;40226;50.874;4.394;2023-12-28T10:07:43;18.15;;;3.10;;
23596;SDS011;40226;50.874;4.394;2023-12-28T10:10:10;16.77;;;2.92;;
23596;SDS011;40226;50.874;4.394;2023-12-28T10:12:36;21.42;;;3.10;;
23596;SDS011;40226;50.874;4.394;2023-12-28T10:15:02;17.50;;;3.03;;
23596;SDS011;40226;50.874;4.394;2023-12-28T10:17:29;22.00;;;2.88;;
23596;SDS011;40226;50.874;4.394;2023-12-28T10:19:54;16.10;;;2.88;;
23596;SDS011;40226;50.874;4.394;2023-12-28T10:22:27;21.20;;;3.20;;
23596;SDS011;40226;50.874;4.394;2023-12-28T10:24:54;18.00;;;2.90;;
23596;SDS011;40226;50.874;4.394;2023-12-28T10:27:19;25.60;;;3.63;;
23596;SDS011;40226;50.874;4.394;2023-12-28T10:29:45;21.25;;;3.33;;
23596;SDS011;40226;50.874;4.394;2023-12-28T10:32:11;31.60;;;4.05;;
23596;SDS011;40226;50.874;4.394;2023-12-28T10:34:36;19.25;;;3.95;;
23596;SDS011;40226;50.874;4.394;2023-12-28T10:37:02;25.30;;;3.35;;
23596;SDS011;40226;50.874;4.394;2023-12-28T10:39:29;16.40;;;3.33;;
23596;SDS011;40226;50.874;4.394;2023-12-28T10:41:58;17.88;;;2.58;;
23596;SDS011;40226;50.874;4.394;2023-12-28T10:44:29;15.18;;;2.53;;
23596;SDS011;40226;50.874;4.394;2023-12-28T10:47:00;21.38;;;3.53;;
23596;SDS011;40226;50.874;4.394;2023-12-28T10:49:27;21.17;;;3.05;;
23596;SDS011;40226;50.874;4.394;2023-12-28T10:51:58;20.85;;;3.63;;
23596;SDS011;40226;50.874;4.394;2023-12-28T10:54:32;19.27;;;3.05;;
23596;SDS011;40226;50.874;4.394;2023-12-28T10:59:51;24.35;;;3.67;;
23596;SDS011;40226;50.874;4.394;2023-12-28T11:02:19;16.05;;;3.25;;
23596;SDS011;40226;50.874;4.394;2023-12-28T11:04:50;16.17;;;3.28;;
23596;SDS011;40226;50.874;4.394;2023-12-28T11:07:18;15.77;;;3.13;;
23596;SDS011;40226;50.874;4.394;2023-12-28T11:09:45;20.08;;;3.20;;
23596;SDS011;40226;50.874;4.394;2023-12-28T11:12:11;23.23;;;3.70;;
23596;SDS011;40226;50.874;4.394;2023-12-28T11:14:39;19.70;;;2.90;;
23596;SDS011;40226;50.874;4.394;2023-12-28T11:17:06;20.13;;;2.72;;
23596;SDS011;40226;50.874;4.394;2023-12-28T11:19:34;18.58;;;3.65;;
23596;SDS011;40226;50.874;4.394;2023-12-28T11:22:02;21.08;;;3.92;;
23596;SDS011;40226;50.874;4.394;2023-12-28T11:24:29;20.65;;;3.88;;
23596;SDS011;40226;50.874;4.394;2023-12-28T11:26:56;25.67;;;3.83;;
23596;SDS011;40226;50.874;4.394;2023-12-28T11:29:22;20.80;;;3.30;;
23596;SDS011;40226;50.874;4.394;2023-12-28T11:31:53;24.92;;;3.63;;
23596;SDS011;40226;50.874;4.394;2023-12-28T11:34:29;20.85;;;3.35;;
23596;SDS011;40226;50.874;4.394;2023-12-28T11:36:56;13.45;;;2.92;;
23596;SDS011;40226;50.874;4.394;2023-12-28T11:39:31;21.90;;;2.97;;
23596;SDS011;40226;50.874;4.394;2023-12-28T11:42:05;15.65;;;3.15;;
23596;SDS011;40226;50.874;4.394;2023-12-28T11:44:40;21.33;;;3.30;;
23596;SDS011;40226;50.874;4.394;2023-12-28T11:47:42;19.88;;;3.25;;
23596;SDS011;40226;50.874;4.394;2023-12-28T11:50:07;15.70;;;4.15;;
23596;SDS011;40226;50.874;4.394;2023-12-28T11:52:33;16.85;;;2.60;;
23596;SDS011;40226;50.874;4.394;2023-12-28T11:54:59;23.30;;;3.85;;
23596;SDS011;40226;50.874;4.394;2023-12-28T11:57:25;15.35;;;3.13;;
23596;SDS011;40226;50.874;4.394;2023-12-28T11:59:58;19.42;;;3.42;;
23596;SDS011;40226;50.874;4.394;2023-12-28T12:02:25;23.20;;;3.35;;
23596;SDS011;40226;50.874;4.394;2023-12-28T12:04:51;18.92;;;3.65;;
23596;SDS011;40226;50.874;4.394;2023-12-28T12:07:22;23.27;;;3.25;;
23596;SDS011;40226;50.874;4.394;2023-12-28T12:10:00;20.85;;;3.05;;
23596;SDS011;40226;50.874;4.394;2023-12-28T12:12:25;22.65;;;3.53;;
23596;SDS011;40226;50.874;4.394;2023-12-28T12:14:51;28.10;;;3.88;;
23596;SDS011;40226;50.874;4.394;2023-12-28T12:17:17;20.70;;;3.75;;
23596;SDS011;40226;50.874;4.394;2023-12-28T12:19:44;20.10;;;3.42;;
23596;SDS011;40226;50.874;4.394;2023-12-28T12:22:12;20.33;;;3.70;;
23596;SDS011;40226;50.874;4.394;2023-12-28T12:24:39;18.58;;;3.30;;
23596;SDS011;40226;50.874;4.394;2023-12-28T12:27:06;25.13;;;3.00;;
23596;SDS011;40226;50.874;4.394;2023-12-28T12:29:31;14.52;;;2.95;;
23596;SDS011;40226;50.874;4.394;2023-12-28T12:31:57;14.80;;;2.63;;
23596;SDS011;40226;50.874;4.394;2023-12-28T12:34:23;19.42;;;3.35;;
23596;SDS011;40226;50.874;4.394;2023-12-28T12:36:49;24.98;;;3.35;;
23596;SDS011;40226;50.874;4.394;2023-12-28T12:39:17;19.48;;;3.47;;
23596;SDS011;40226;50.874;4.394;2023-12-28T12:41:45;24.60;;;3.83;;
23596;SDS011;40226;50.874;4.394;2023-12-28T12:44:11;17.95;;;2.95;;
23596;SDS011;40226;50.874;4.394;2023-12-28T12:46:37;24.13;;;4.30;;
23596;SDS011;40226;50.874;4.394;2023-12-28T12:49:03;19.55;;;3.03;;
23596;SDS011;40226;50.874;4.394;2023-12-28T12:51:30;13.77;;;2.95;;
23596;SDS011;40226;50.874;4.394;2023-12-28T12:53:59;20.88;;;3.10;;
23596;SDS011;40226;50.874;4.394;2023-12-28T12:56:32;15.23;;;2.65;;
23596;SDS011;40226;50.874;4.394;2023-12-28T12:58:57;22.35;;;3.03;;
23596;SDS011;40226;50.874;4.394;2023-12-28T13:01:23;13.60;;;2.47;;
23596;SDS011;40226;50.874;4.394;2023-12-28T13:03:52;16.00;;;2.90;;
23596;SDS011;40226;50.874;4.394;2023-12-28T13:06:18;16.17;;;2.58;;
23596;SDS011;40226;50.874;4.394;2023-12-28T13:08:47;25.63;;;2.78;;
23596;SDS011;40226;50.874;4.394;2023-12-28T13:11:13;17.35;;;2.78;;
23596;SDS011;40226;50.874;4.394;2023-12-28T13:13:40;18.13;;;3.58;;
23596;SDS011;40226;50.874;4.394;2023-12-28T13:16:06;17.33;;;3.20;;
23596;SDS011;40226;50.874;4.394;2023-12-28T13:18:32;19.50;;;2.65;;
23596;SDS011;40226;50.874;4.394;2023-12-28T13:21:00;20.30;;;3.20;;
23596;SDS011;40226;50.874;4.394;2023-12-28T13:23:26;17.67;;;3.28;;
23596;SDS011;40226;50.874;4.394;2023-12-28T13:25:51;21.20;;;3.03;;
23596;SDS011;40226;50.874;4.394;2023-12-28T13:28:17;18.42;;;2.90;;
23596;SDS011;40226;50.874;4.394;2023-12-28T13:30:43;16.15;;;3.15;;
23596;SDS011;40226;50.874;4.394;2023-12-28T13:33:08;13.00;;;2.95;;
23596;SDS011;40226;50.874;4.394;2023-12-28T13:35:34;13.60;;;2.97;;
23596;SDS011;40226;50.874;4.394;2023-12-28T13:38:00;17.23;;;3.22;;
23596;SDS011;40226;50.874;4.394;2023-12-28T13:40:28;17.27;;;3.28;;
23596;SDS011;40226;50.874;4.394;2023-12-28T13:42:56;17.33;;;2.92;;
23596;SDS011;40226;50.874;4.394;2023-12-28T13:45:22;20.00;;;2.95;;
23596;SDS011;40226;50.874;4.394;2023-12-28T13:47:47;19.63;;;3.53;;
23596;SDS011;40226;50.874;4.394;2023-12-28T13:50:13;12.48;;;3.08;;
23596;SDS011;40226;50.874;4.394;2023-12-28T13:52:39;18.40;;;2.78;;
23596;SDS011;40226;50.874;4.394;2023-12-28T13:55:04;15.73;;;2.90;;
23596;SDS011;40226;50.874;4.394;2023-12-28T13:57:30;17.13;;;3.53;;
23596;SDS011;40226;50.874;4.394;2023-12-28T13:59:57;23.40;;;3.50;;
23596;SDS011;40226;50.874;4.394;2023-12-28T14:02:25;17.25;;;2.88;;
23596;SDS011;40226;50.874;4.394;2023-12-28T14:04:51;17.92;;;2.80;;
23596;SDS011;40226;50.874;4.394;2023-12-28T14:07:18;21.80;;;3.22;;
23596;SDS011;40226;50.874;4.394;2023-12-28T14:09:44;20.33;;;3.40;;
23596;SDS011;40226;50.874;4.394;2023-12-28T14:12:10;14.07;;;2.88;;
23596;SDS011;40226;50.874;4.394;2023-12-28T14:14:35;20.17;;;3.03;;
23596;SDS011;40226;50.874;4.394;2023-12-28T14:17:01;18.45;;;3.50;;
23596;SDS011;40226;50.874;4.394;2023-12-28T14:19:29;23.48;;;3.15;;
23596;SDS011;40226;50.874;4.394;2023-12-28T14:21:55;17.75;;;3.00;;
23596;SDS011;40226;50.874;4.394;2023-12-28T14:24:21;22.25;;;3.33;;
23596;SDS011;40226;50.874;4.394;2023-12-28T14:26:46;16.38;;;3.03;;
23596;SDS011;40226;50.874;4.394;2023-12-28T14:29:15;20.33;;;3.00;;
23596;SDS011;40226;50.874;4.394;2023-12-28T14:31:41;17.88;;;3.70;;
23596;SDS011;40226;50.874;4.394;2023-12-28T14:34:09;14.73;;;3.72;;
23596;SDS011;40226;50.874;4.394;2023-12-28T14:36:35;23.90;;;2.78;;
23596;SDS011;40226;50.874;4.394;2023-12-28T14:39:03;13.30;;;2.55;;
23596;SDS011;40226;50.874;4.394;2023-12-28T14:41:32;15.75;;;2.60;;
23596;SDS011;40226;50.874;4.394;2023-12-28T14:43:58;20.83;;;2.72;;
23596;SDS011;40226;50.874;4.394;2023-12-28T14:46:24;19.55;;;3.00;;